sensor_id;sensor_type;location;lat;lon;timestamp;pressure;altitude;pressure_sealevel;temperature;humidity
6567;BME280;3317;43.994;22.878;2023-07-29T00:01:37;100681.84;;;25.02;47.16
6567;BME280;3317;43.994;22.878;2023-07-29T00:04:06;100669.69;;;24.86;48.57
6567;BME280;3317;43.994;22.878;2023-07-29T00:06:34;100672.88;;;24.95;47.93
6567;BME280;3317;43.994;22.878;2023-07-29T00:09:01;100682.28;;;24.94;46.45
6567;BME280;3317;43.994;22.878;2023-07-29T00:11:29;100680.59;;;24.93;45.78
6567;BME280;3317;43.994;22.878;2023-07-29T00:13:57;100685.81;;;24.89;46.37
6567;BME280;3317;43.994;22.878;2023-07-29T00:16:24;100669.84;;;24.80;47.89
6567;BME280;3317;43.994;22.878;2023-07-29T00:18:51;100690.16;;;24.85;48.96
6567;BME280;3317;43.994;22.878;2023-07-29T00:21:18;100683.19;;;24.83;48.72
6567;BME280;3317;43.994;22.878;2023-07-29T00:23:45;100671.56;;;24.69;47.53
6567;BME280;3317;43.994;22.878;2023-07-29T00:26:12;100683.50;;;24.69;48.82
6567;BME280;3317;43.994;22.878;2023-07-29T00:28:39;100680.63;;;24.64;48.63
6567;BME280;3317;43.994;22.878;2023-07-29T00:31:07;100674.47;;;24.62;48.42
6567;BME280;3317;43.994;22.878;2023-07-29T00:33:34;100674.13;;;24.58;48.39
6567;BME280;3317;43.994;22.878;2023-07-29T00:36:01;100639.66;;;24.20;48.60
6567;BME280;3317;43.994;22.878;2023-07-29T00:38:28;100670.94;;;24.50;48.45
6567;BME280;3317;43.994;22.878;2023-07-29T00:40:57;100677.91;;;24.52;47.81
6567;BME280;3317;43.994;22.878;2023-07-29T00:43:24;100675.66;;;24.49;47.58
6567;BME280;3317;43.994;22.878;2023-07-29T00:45:51;100676.97;;;24.46;48.48
6567;BME280;3317;43.994;22.878;2023-07-29T00:48:19;100672.78;;;24.44;48.23
6567;BME280;3317;43.994;22.878;2023-07-29T00:50:47;100674.13;;;24.41;48.62
6567;BME280;3317;43.994;22.878;2023-07-29T00:53:14;100674.13;;;24.41;47.75
6567;BME280;3317;43.994;22.878;2023-07-29T00:55:41;100671.00;;;24.38;48.82
6567;BME280;3317;43.994;22.878;2023-07-29T00:58:08;100677.63;;;24.37;48.58
6567;BME280;3317;43.994;22.878;2023-07-29T01:00:36;100671.75;;;24.33;48.77
6567;BME280;3317;43.994;22.878;2023-07-29T01:03:03;100665.88;;;24.29;49.42
6567;BME280;3317;43.994;22.878;2023-07-29T01:05:40;100657.47;;;24.24;49.48
6567;BME280;3317;43.994;22.878;2023-07-29T01:08:19;100663.25;;;24.23;49.44
6567;BME280;3317;43.994;22.878;2023-07-29T01:10:55;100655.44;;;24.19;50.12
6567;BME280;3317;43.994;22.878;2023-07-29T01:13:34;100654.84;;;24.17;49.69
6567;BME280;3317;43.994;22.878;2023-07-29T01:16:08;100663.31;;;24.11;49.55
6567;BME280;3317;43.994;22.878;2023-07-29T01:18:39;100657.41;;;24.07;49.21
6567;BME280;3317;43.994;22.878;2023-07-29T01:21:08;100650.69;;;24.03;49.74
6567;BME280;3317;43.994;22.878;2023-07-29T01:23:37;100657.28;;;24.02;48.42
6567;BME280;3317;43.994;22.878;2023-07-29T01:26:04;100654.75;;;24.00;48.49
6567;BME280;3317;43.994;22.878;2023-07-29T01:28:31;100658.63;;;23.99;47.60
6567;BME280;3317;43.994;22.878;2023-07-29T01:31:12;100653.81;;;23.95;48.72
6567;BME280;3317;43.994;22.878;2023-07-29T01:33:44;100664.53;;;23.91;49.33
6567;BME280;3317;43.994;22.878;2023-07-29T01:36:20;100663.34;;;23.87;48.66
6567;BME280;3317;43.994;22.878;2023-07-29T01:38:51;100659.03;;;23.79;49.54
6567;BME280;3317;43.994;22.878;2023-07-29T01:41:20;100661.53;;;23.81;48.48
6567;BME280;3317;43.994;22.878;2023-07-29T01:43:47;100667.34;;;23.79;48.25
6567;BME280;3317;43.994;22.878;2023-07-29T01:46:15;100669.16;;;23.73;49.63
6567;BME280;3317;43.994;22.878;2023-07-29T01:48:42;100650.06;;;23.60;49.16
6567;BME280;3317;43.994;22.878;2023-07-29T01:51:11;100661.81;;;23.67;48.13
6567;BME280;3317;43.994;22.878;2023-07-29T01:53:39;100669.53;;;23.65;48.71
6567;BME280;3317;43.994;22.878;2023-07-29T01:56:07;100674.47;;;23.63;48.89
6567;BME280;3317;43.994;22.878;2023-07-29T01:58:34;100683.84;;;23.62;48.33
6567;BME280;3317;43.994;22.878;2023-07-29T02:01:01;100681.09;;;23.62;47.12
6567;BME280;3317;43.994;22.878;2023-07-29T02:03:28;100685.75;;;23.61;47.62
6567;BME280;3317;43.994;22.878;2023-07-29T02:05:54;100659.81;;;23.51;48.73
6567;BME280;3317;43.994;22.878;2023-07-29T02:08:21;100677.59;;;23.55;50.08
6567;BME280;3317;43.994;22.878;2023-07-29T02:10:48;100684.22;;;23.54;48.83
6567;BME280;3317;43.994;22.878;2023-07-29T02:13:17;100681.94;;;23.51;49.01
6567;BME280;3317;43.994;22.878;2023-07-29T02:15:43;100681.34;;;23.48;49.58
6567;BME280;3317;43.994;22.878;2023-07-29T02:18:10;100683.50;;;23.46;48.74
6567;BME280;3317;43.994;22.878;2023-07-29T02:20:37;100679.28;;;23.44;48.26
6567;BME280;3317;43.994;22.878;2023-07-29T02:23:04;100690.59;;;23.42;49.05
6567;BME280;3317;43.994;22.878;2023-07-29T02:25:31;100677.50;;;23.38;49.06
6567;BME280;3317;43.994;22.878;2023-07-29T02:28:01;100685.19;;;23.35;49.60
6567;BME280;3317;43.994;22.878;2023-07-29T02:30:31;100682.31;;;23.30;50.29
6567;BME280;3317;43.994;22.878;2023-07-29T02:32:58;100689.16;;;23.28;50.82
6567;BME280;3317;43.994;22.878;2023-07-29T02:35:26;100698.13;;;23.23;50.55
6567;BME280;3317;43.994;22.878;2023-07-29T02:37:53;100698.88;;;23.18;50.99
6567;BME280;3317;43.994;22.878;2023-07-29T02:40:20;100709.31;;;23.16;51.35
6567;BME280;3317;43.994;22.878;2023-07-29T02:42:48;100706.41;;;23.11;50.72
6567;BME280;3317;43.994;22.878;2023-07-29T02:45:15;100713.25;;;23.09;50.99
6567;BME280;3317;43.994;22.878;2023-07-29T02:47:43;100718.44;;;23.05;51.16
6567;BME280;3317;43.994;22.878;2023-07-29T02:50:10;100717.81;;;23.03;51.14
6567;BME280;3317;43.994;22.878;2023-07-29T02:52:37;100712.53;;;23.01;51.17
6567;BME280;3317;43.994;22.878;2023-07-29T02:55:05;100704.72;;;22.98;50.91
6567;BME280;3317;43.994;22.878;2023-07-29T02:57:32;100698.59;;;22.96;50.86
6567;BME280;3317;43.994;22.878;2023-07-29T02:59:59;100704.38;;;22.95;49.10
6567;BME280;3317;43.994;22.878;2023-07-29T03:02:26;100703.28;;;22.96;48.84
6567;BME280;3317;43.994;22.878;2023-07-29T03:04:54;100700.53;;;22.96;48.33
6567;BME280;3317;43.994;22.878;2023-07-29T03:07:21;100700.75;;;22.94;48.27
6567;BME280;3317;43.994;22.878;2023-07-29T03:09:48;100704.38;;;22.95;49.08
6567;BME280;3317;43.994;22.878;2023-07-29T03:12:15;100708.66;;;22.90;49.82
6567;BME280;3317;43.994;22.878;2023-07-29T03:14:42;100709.75;;;22.89;49.56
6567;BME280;3317;43.994;22.878;2023-07-29T03:17:09;100696.41;;;22.86;49.94
6567;BME280;3317;43.994;22.878;2023-07-29T03:19:36;100686.66;;;22.84;50.08
6567;BME280;3317;43.994;22.878;2023-07-29T03:22:04;100692.69;;;22.81;49.51
6567;BME280;3317;43.994;22.878;2023-07-29T03:24:31;100688.22;;;22.79;49.32
6567;BME280;3317;43.994;22.878;2023-07-29T03:26:58;100674.16;;;22.69;50.74
6567;BME280;3317;43.994;22.878;2023-07-29T03:29:25;100699.75;;;22.76;51.73
6567;BME280;3317;43.994;22.878;2023-07-29T03:31:52;100707.91;;;22.71;51.85
6567;BME280;3317;43.994;22.878;2023-07-29T03:34:19;100704.78;;;22.68;51.94
6567;BME280;3317;43.994;22.878;2023-07-29T03:36:46;100676.47;;;22.42;52.21
6567;BME280;3317;43.994;22.878;2023-07-29T03:39:15;100713.53;;;22.64;52.42
6567;BME280;3317;43.994;22.878;2023-07-29T03:41:42;100722.06;;;22.63;52.95
6567;BME280;3317;43.994;22.878;2023-07-29T03:44:09;100730.56;;;22.61;53.16
6567;BME280;3317;43.994;22.878;2023-07-29T03:46:36;100728.88;;;22.60;53.21
6567;BME280;3317;43.994;22.878;2023-07-29T03:49:03;100728.66;;;22.62;52.15
6567;BME280;3317;43.994;22.878;2023-07-29T03:51:30;100724.56;;;22.64;52.20
6567;BME280;3317;43.994;22.878;2023-07-29T03:53:56;100716.75;;;22.61;52.50
6567;BME280;3317;43.994;22.878;2023-07-29T03:56:25;100720.72;;;22.65;52.60
6567;BME280;3317;43.994;22.878;2023-07-29T03:58:52;100722.66;;;22.65;53.05
6567;BME280;3317;43.994;22.878;2023-07-29T04:01:19;100715.59;;;22.69;52.91
6567;BME280;3317;43.994;22.878;2023-07-29T04:03:46;100712.59;;;22.71;53.22
6567;BME280;3317;43.994;22.878;2023-07-29T04:06:13;100714.88;;;22.74;53.23
6567;BME280;3317;43.994;22.878;2023-07-29T04:08:40;100717.78;;;22.79;53.17
6567;BME280;3317;43.994;22.878;2023-07-29T04:11:07;100729.44;;;22.81;53.41
6567;BME280;3317;43.994;22.878;2023-07-29T04:13:36;100735.31;;;22.85;53.81
6567;BME280;3317;43.994;22.878;2023-07-29T04:16:04;100737.38;;;22.89;54.07
6567;BME280;3317;43.994;22.878;2023-07-29T04:18:31;100728.75;;;22.98;53.95
6567;BME280;3317;43.994;22.878;2023-07-29T04:20:58;100729.13;;;23.01;54.39
6567;BME280;3317;43.994;22.878;2023-07-29T04:23:25;100710.00;;;23.00;54.43
6567;BME280;3317;43.994;22.878;2023-07-29T04:25:52;100717.84;;;23.15;54.49
6567;BME280;3317;43.994;22.878;2023-07-29T04:28:19;100716.78;;;23.28;54.14
6567;BME280;3317;43.994;22.878;2023-07-29T04:30:47;100726.66;;;23.35;53.82
6567;BME280;3317;43.994;22.878;2023-07-29T04:33:14;100713.06;;;23.46;53.47
6567;BME280;3317;43.994;22.878;2023-07-29T04:35:41;100714.63;;;23.54;53.44
6567;BME280;3317;43.994;22.878;2023-07-29T04:38:08;100723.41;;;23.62;52.96
6567;BME280;3317;43.994;22.878;2023-07-29T04:40:35;100727.25;;;23.73;52.87
6567;BME280;3317;43.994;22.878;2023-07-29T04:43:02;100717.50;;;23.83;52.81
6567;BME280;3317;43.994;22.878;2023-07-29T04:45:29;100720.47;;;23.93;52.47
6567;BME280;3317;43.994;22.878;2023-07-29T04:47:58;100719.41;;;24.06;52.12
6567;BME280;3317;43.994;22.878;2023-07-29T04:50:24;100724.88;;;24.18;51.80
6567;BME280;3317;43.994;22.878;2023-07-29T04:52:51;100725.69;;;24.30;51.50
6567;BME280;3317;43.994;22.878;2023-07-29T04:55:19;100728.16;;;24.44;50.79
6567;BME280;3317;43.994;22.878;2023-07-29T04:57:46;100730.53;;;24.52;50.04
6567;BME280;3317;43.994;22.878;2023-07-29T05:00:13;100732.44;;;24.64;49.96
6567;BME280;3317;43.994;22.878;2023-07-29T05:02:40;100723.22;;;24.75;50.03
6567;BME280;3317;43.994;22.878;2023-07-29T05:05:09;100728.13;;;24.85;49.50
6567;BME280;3317;43.994;22.878;2023-07-29T05:07:36;100734.78;;;25.01;49.03
6567;BME280;3317;43.994;22.878;2023-07-29T05:10:03;100741.09;;;25.13;48.96
6567;BME280;3317;43.994;22.878;2023-07-29T05:12:30;100726.53;;;25.23;48.82
6567;BME280;3317;43.994;22.878;2023-07-29T05:14:58;100733.66;;;25.36;48.67
6567;BME280;3317;43.994;22.878;2023-07-29T05:17:25;100730.56;;;25.50;48.28
6567;BME280;3317;43.994;22.878;2023-07-29T05:19:52;100732.41;;;25.61;48.26
6567;BME280;3317;43.994;22.878;2023-07-29T05:22:20;100741.44;;;25.73;47.59
6567;BME280;3317;43.994;22.878;2023-07-29T05:24:47;100740.84;;;25.89;47.57
6567;BME280;3317;43.994;22.878;2023-07-29T05:27:14;100738.78;;;26.01;47.07
6567;BME280;3317;43.994;22.878;2023-07-29T05:29:41;100740.59;;;26.12;46.77
6567;BME280;3317;43.994;22.878;2023-07-29T05:32:08;100746.59;;;26.26;46.52
6567;BME280;3317;43.994;22.878;2023-07-29T05:34:35;100743.16;;;26.41;46.13
6567;BME280;3317;43.994;22.878;2023-07-29T05:37:03;100748.88;;;26.57;45.84
6567;BME280;3317;43.994;22.878;2023-07-29T05:39:31;100756.28;;;26.74;45.36
6567;BME280;3317;43.994;22.878;2023-07-29T05:41:59;100748.97;;;26.90;44.99
6567;BME280;3317;43.994;22.878;2023-07-29T05:44:28;100754.94;;;27.04;44.61
6567;BME280;3317;43.994;22.878;2023-07-29T05:46:56;100748.66;;;27.19;44.50
6567;BME280;3317;43.994;22.878;2023-07-29T05:49:23;100755.72;;;27.32;44.86
6567;BME280;3317;43.994;22.878;2023-07-29T05:51:50;100762.25;;;27.48;44.42
6567;BME280;3317;43.994;22.878;2023-07-29T05:54:18;100758.72;;;27.58;43.50
6567;BME280;3317;43.994;22.878;2023-07-29T05:56:47;100772.72;;;27.73;43.27
6567;BME280;3317;43.994;22.878;2023-07-29T05:59:14;100769.75;;;27.85;43.01
6567;BME280;3317;43.994;22.878;2023-07-29T06:01:41;100770.94;;;28.00;42.98
6567;BME280;3317;43.994;22.878;2023-07-29T06:04:08;100765.16;;;28.17;42.62
6567;BME280;3317;43.994;22.878;2023-07-29T06:06:35;100764.97;;;28.34;42.50
6567;BME280;3317;43.994;22.878;2023-07-29T06:09:02;100762.78;;;28.46;42.38
6567;BME280;3317;43.994;22.878;2023-07-29T06:11:28;100760.06;;;28.62;42.11
6567;BME280;3317;43.994;22.878;2023-07-29T06:13:57;100753.38;;;28.78;41.90
6567;BME280;3317;43.994;22.878;2023-07-29T06:16:24;100755.34;;;28.93;41.46
6567;BME280;3317;43.994;22.878;2023-07-29T06:18:49;100760.38;;;29.07;41.39
6567;BME280;3317;43.994;22.878;2023-07-29T06:21:18;100756.50;;;29.23;41.83
6567;BME280;3317;43.994;22.878;2023-07-29T06:23:45;100762.91;;;29.29;40.24
6567;BME280;3317;43.994;22.878;2023-07-29T06:26:12;100760.41;;;29.38;40.19
6567;BME280;3317;43.994;22.878;2023-07-29T06:28:39;100757.31;;;29.50;40.20
6567;BME280;3317;43.994;22.878;2023-07-29T06:31:07;100767.38;;;29.61;39.91
6567;BME280;3317;43.994;22.878;2023-07-29T06:33:34;100748.66;;;29.72;39.80
6567;BME280;3317;43.994;22.878;2023-07-29T06:36:01;100762.25;;;29.95;39.85
6567;BME280;3317;43.994;22.878;2023-07-29T06:38:28;100763.63;;;30.07;39.08
6567;BME280;3317;43.994;22.878;2023-07-29T06:40:55;100764.41;;;30.24;38.87
6567;BME280;3317;43.994;22.878;2023-07-29T06:43:22;100759.59;;;30.40;39.08
6567;BME280;3317;43.994;22.878;2023-07-29T06:45:49;100761.13;;;30.61;38.59
6567;BME280;3317;43.994;22.878;2023-07-29T06:48:18;100755.81;;;30.70;37.89
6567;BME280;3317;43.994;22.878;2023-07-29T06:50:45;100755.16;;;30.79;38.36
6567;BME280;3317;43.994;22.878;2023-07-29T06:53:12;100756.41;;;31.02;38.66
6567;BME280;3317;43.994;22.878;2023-07-29T06:55:39;100747.03;;;31.17;38.18
6567;BME280;3317;43.994;22.878;2023-07-29T06:58:07;100751.88;;;31.41;38.52
6567;BME280;3317;43.994;22.878;2023-07-29T07:00:34;100751.72;;;31.56;37.89
6567;BME280;3317;43.994;22.878;2023-07-29T07:03:01;100748.72;;;31.77;38.00
6567;BME280;3317;43.994;22.878;2023-07-29T07:05:29;100751.34;;;31.93;36.76
6567;BME280;3317;43.994;22.878;2023-07-29T07:07:56;100741.31;;;32.11;36.34
6567;BME280;3317;43.994;22.878;2023-07-29T07:10:23;100742.72;;;32.33;35.94
6567;BME280;3317;43.994;22.878;2023-07-29T07:12:50;100747.91;;;32.44;35.57
6567;BME280;3317;43.994;22.878;2023-07-29T07:15:17;100757.22;;;32.59;35.47
6567;BME280;3317;43.994;22.878;2023-07-29T07:17:44;100754.13;;;32.80;35.67
6567;BME280;3317;43.994;22.878;2023-07-29T07:20:11;100748.28;;;32.95;34.76
6567;BME280;3317;43.994;22.878;2023-07-29T07:22:39;100751.28;;;33.18;34.56
6567;BME280;3317;43.994;22.878;2023-07-29T07:25:07;100748.09;;;33.39;34.40
6567;BME280;3317;43.994;22.878;2023-07-29T07:27:34;100736.69;;;33.49;34.14
6567;BME280;3317;43.994;22.878;2023-07-29T07:30:03;100744.41;;;33.71;33.60
6567;BME280;3317;43.994;22.878;2023-07-29T07:32:30;100746.72;;;33.83;33.39
6567;BME280;3317;43.994;22.878;2023-07-29T07:34:57;100741.31;;;34.01;34.22
6567;BME280;3317;43.994;22.878;2023-07-29T07:37:24;100745.78;;;34.16;34.49
6567;BME280;3317;43.994;22.878;2023-07-29T07:39:52;100751.50;;;34.39;34.85
6567;BME280;3317;43.994;22.878;2023-07-29T07:42:19;100742.50;;;34.37;33.88
6567;BME280;3317;43.994;22.878;2023-07-29T07:44:46;100743.88;;;34.39;34.09
6567;BME280;3317;43.994;22.878;2023-07-29T07:47:13;100742.38;;;34.56;34.82
6567;BME280;3317;43.994;22.878;2023-07-29T07:49:40;100733.66;;;34.58;33.84
6567;BME280;3317;43.994;22.878;2023-07-29T07:52:07;100737.59;;;34.43;33.38
6567;BME280;3317;43.994;22.878;2023-07-29T07:54:34;100744.19;;;34.52;34.03
6567;BME280;3317;43.994;22.878;2023-07-29T07:57:02;100739.97;;;34.26;33.80
6567;BME280;3317;43.994;22.878;2023-07-29T07:59:29;100735.28;;;34.08;34.28
6567;BME280;3317;43.994;22.878;2023-07-29T08:01:56;100741.91;;;34.26;34.83
6567;BME280;3317;43.994;22.878;2023-07-29T08:04:23;100733.91;;;34.33;33.93
6567;BME280;3317;43.994;22.878;2023-07-29T08:06:50;100730.13;;;34.52;34.43
6567;BME280;3317;43.994;22.878;2023-07-29T08:09:17;100731.22;;;34.88;34.97
6567;BME280;3317;43.994;22.878;2023-07-29T08:11:44;100730.78;;;35.17;35.23
6567;BME280;3317;43.994;22.878;2023-07-29T08:14:12;100719.75;;;35.30;33.08
6567;BME280;3317;43.994;22.878;2023-07-29T08:16:39;100722.81;;;35.42;32.89
6567;BME280;3317;43.994;22.878;2023-07-29T08:19:06;100722.44;;;35.66;32.83
6567;BME280;3317;43.994;22.878;2023-07-29T08:21:35;100723.66;;;35.83;32.43
6567;BME280;3317;43.994;22.878;2023-07-29T08:24:02;100730.69;;;36.03;32.75
6567;BME280;3317;43.994;22.878;2023-07-29T08:26:29;100720.94;;;36.10;30.92
6567;BME280;3317;43.994;22.878;2023-07-29T08:28:56;100721.59;;;36.06;30.65
6567;BME280;3317;43.994;22.878;2023-07-29T08:31:24;100715.78;;;36.12;31.67
6567;BME280;3317;43.994;22.878;2023-07-29T08:33:51;100715.25;;;36.01;30.60
6567;BME280;3317;43.994;22.878;2023-07-29T08:36:18;100708.97;;;35.55;30.83
6567;BME280;3317;43.994;22.878;2023-07-29T08:38:45;100714.44;;;35.60;31.40
6567;BME280;3317;43.994;22.878;2023-07-29T08:41:14;100700.78;;;35.85;32.23
6567;BME280;3317;43.994;22.878;2023-07-29T08:43:49;100712.84;;;36.26;32.49
6567;BME280;3317;43.994;22.878;2023-07-29T08:46:17;100702.56;;;36.74;31.38
6567;BME280;3317;43.994;22.878;2023-07-29T08:48:47;100708.00;;;37.23;30.08
6567;BME280;3317;43.994;22.878;2023-07-29T08:51:14;100703.41;;;37.48;28.98
6567;BME280;3317;43.994;22.878;2023-07-29T08:53:42;100698.81;;;37.74;28.18
6567;BME280;3317;43.994;22.878;2023-07-29T08:56:10;100695.91;;;37.92;28.42
6567;BME280;3317;43.994;22.878;2023-07-29T08:58:37;100660.38;;;37.82;28.40
6567;BME280;3317;43.994;22.878;2023-07-29T09:01:06;100699.25;;;38.36;28.36
6567;BME280;3317;43.994;22.878;2023-07-29T09:03:33;100695.25;;;38.58;25.94
6567;BME280;3317;43.994;22.878;2023-07-29T09:06:02;100703.38;;;38.81;25.57
6567;BME280;3317;43.994;22.878;2023-07-29T09:08:29;100645.06;;;38.68;25.84
6567;BME280;3317;43.994;22.878;2023-07-29T09:10:56;100695.25;;;39.13;25.35
6567;BME280;3317;43.994;22.878;2023-07-29T09:13:24;100657.16;;;38.90;24.29
6567;BME280;3317;43.994;22.878;2023-07-29T09:15:54;100692.44;;;39.26;24.77
6567;BME280;3317;43.994;22.878;2023-07-29T09:18:22;100687.56;;;39.26;24.21
6567;BME280;3317;43.994;22.878;2023-07-29T09:20:50;100675.78;;;39.24;25.28
6567;BME280;3317;43.994;22.878;2023-07-29T09:23:18;100683.22;;;39.29;24.71
6567;BME280;3317;43.994;22.878;2023-07-29T09:25:46;100673.19;;;39.32;23.82
6567;BME280;3317;43.994;22.878;2023-07-29T09:28:15;100679.59;;;39.41;25.28
6567;BME280;3317;43.994;22.878;2023-07-29T09:30:44;100680.06;;;39.68;24.04
6567;BME280;3317;43.994;22.878;2023-07-29T09:33:11;100680.31;;;39.75;24.12
6567;BME280;3317;43.994;22.878;2023-07-29T09:35:39;100679.84;;;39.85;24.29
6567;BME280;3317;43.994;22.878;2023-07-29T09:38:06;100680.44;;;39.66;22.62
6567;BME280;3317;43.994;22.878;2023-07-29T09:40:39;100680.19;;;39.59;23.47
6567;BME280;3317;43.994;22.878;2023-07-29T09:43:09;100668.84;;;39.71;24.01
6567;BME280;3317;43.994;22.878;2023-07-29T09:45:37;100669.91;;;39.92;24.15
6567;BME280;3317;43.994;22.878;2023-07-29T09:48:05;100654.50;;;40.05;24.11
6567;BME280;3317;43.994;22.878;2023-07-29T09:50:35;100664.34;;;39.95;23.27
6567;BME280;3317;43.994;22.878;2023-07-29T09:53:02;100667.19;;;39.95;23.76
6567;BME280;3317;43.994;22.878;2023-07-29T09:55:32;100656.56;;;39.80;22.71
6567;BME280;3317;43.994;22.878;2023-07-29T09:58:02;100654.69;;;39.59;22.54
6567;BME280;3317;43.994;22.878;2023-07-29T10:00:32;100654.78;;;39.38;23.05
6567;BME280;3317;43.994;22.878;2023-07-29T10:03:00;100651.84;;;39.47;23.85
6567;BME280;3317;43.994;22.878;2023-07-29T10:05:29;100651.38;;;39.57;24.32
6567;BME280;3317;43.994;22.878;2023-07-29T10:07:56;100653.94;;;39.62;23.94
6567;BME280;3317;43.994;22.878;2023-07-29T10:10:24;100659.88;;;39.69;23.74
6567;BME280;3317;43.994;22.878;2023-07-29T10:12:51;100653.72;;;39.80;23.57
6567;BME280;3317;43.994;22.878;2023-07-29T10:15:20;100660.31;;;39.96;24.15
6567;BME280;3317;43.994;22.878;2023-07-29T10:17:48;100621.56;;;39.88;23.33
6567;BME280;3317;43.994;22.878;2023-07-29T10:20:16;100653.09;;;40.11;23.04
6567;BME280;3317;43.994;22.878;2023-07-29T10:22:44;100655.22;;;40.02;22.64
6567;BME280;3317;43.994;22.878;2023-07-29T10:25:16;100632.22;;;39.91;22.83
6567;BME280;3317;43.994;22.878;2023-07-29T10:27:44;100644.50;;;39.70;22.16
6567;BME280;3317;43.994;22.878;2023-07-29T10:30:14;100646.75;;;39.65;23.42
6567;BME280;3317;43.994;22.878;2023-07-29T10:32:44;100638.50;;;39.72;23.82
6567;BME280;3317;43.994;22.878;2023-07-29T10:35:12;100638.34;;;39.81;23.34
6567;BME280;3317;43.994;22.878;2023-07-29T10:37:39;100616.88;;;39.67;22.72
6567;BME280;3317;43.994;22.878;2023-07-29T10:40:08;100624.06;;;39.77;23.26
6567;BME280;3317;43.994;22.878;2023-07-29T10:42:36;100623.72;;;39.79;22.85
6567;BME280;3317;43.994;22.878;2023-07-29T10:45:18;100589.56;;;39.75;24.47
6567;BME280;3317;43.994;22.878;2023-07-29T10:47:47;100634.91;;;40.00;23.33
6567;BME280;3317;43.994;22.878;2023-07-29T10:50:19;100629.69;;;40.02;23.40
6567;BME280;3317;43.994;22.878;2023-07-29T10:52:50;100584.50;;;39.68;22.47
6567;BME280;3317;43.994;22.878;2023-07-29T10:55:28;100630.56;;;39.78;22.47
6567;BME280;3317;43.994;22.878;2023-07-29T10:58:07;100622.31;;;39.60;22.96
6567;BME280;3317;43.994;22.878;2023-07-29T11:00:34;100619.25;;;39.65;23.43
6567;BME280;3317;43.994;22.878;2023-07-29T11:03:05;100611.91;;;39.89;23.66
6567;BME280;3317;43.994;22.878;2023-07-29T11:05:49;100617.19;;;39.91;23.12
6567;BME280;3317;43.994;22.878;2023-07-29T11:08:18;100614.78;;;40.05;24.35
6567;BME280;3317;43.994;22.878;2023-07-29T11:10:57;100616.31;;;40.15;22.50
6567;BME280;3317;43.994;22.878;2023-07-29T11:13:26;100619.16;;;40.15;22.07
6567;BME280;3317;43.994;22.878;2023-07-29T11:15:54;100593.81;;;40.22;23.29
6567;BME280;3317;43.994;22.878;2023-07-29T11:18:26;100609.38;;;40.41;22.67
6567;BME280;3317;43.994;22.878;2023-07-29T11:20:54;100613.88;;;40.42;22.65
6567;BME280;3317;43.994;22.878;2023-07-29T11:23:27;100609.78;;;40.55;22.57
6567;BME280;3317;43.994;22.878;2023-07-29T11:25:54;100615.75;;;40.66;22.69
6567;BME280;3317;43.994;22.878;2023-07-29T11:28:21;100616.09;;;40.49;21.30
6567;BME280;3317;43.994;22.878;2023-07-29T11:30:49;100614.50;;;40.51;21.36
6567;BME280;3317;43.994;22.878;2023-07-29T11:33:17;100613.81;;;40.54;21.22
6567;BME280;3317;43.994;22.878;2023-07-29T11:35:46;100607.66;;;40.52;21.27
6567;BME280;3317;43.994;22.878;2023-07-29T11:38:15;100602.19;;;40.60;22.07
6567;BME280;3317;43.994;22.878;2023-07-29T11:40:43;100566.31;;;40.39;20.88
6567;BME280;3317;43.994;22.878;2023-07-29T11:43:17;100597.97;;;40.53;20.51
6567;BME280;3317;43.994;22.878;2023-07-29T11:45:45;100593.44;;;40.52;20.71
6567;BME280;3317;43.994;22.878;2023-07-29T11:48:12;100594.28;;;40.53;20.96
6567;BME280;3317;43.994;22.878;2023-07-29T11:50:38;100594.91;;;40.46;20.03
6567;BME280;3317;43.994;22.878;2023-07-29T11:53:07;100589.78;;;40.23;20.30
6567;BME280;3317;43.994;22.878;2023-07-29T11:55:34;100594.91;;;40.18;20.46
6567;BME280;3317;43.994;22.878;2023-07-29T11:58:01;100560.25;;;39.96;21.21
6567;BME280;3317;43.994;22.878;2023-07-29T12:00:29;100591.25;;;40.17;21.58
6567;BME280;3317;43.994;22.878;2023-07-29T12:02:56;100583.44;;;40.14;21.08
6567;BME280;3317;43.994;22.878;2023-07-29T12:05:24;100594.78;;;40.14;21.30
6567;BME280;3317;43.994;22.878;2023-07-29T12:07:51;100582.72;;;40.17;21.55
6567;BME280;3317;43.994;22.878;2023-07-29T12:10:20;100589.03;;;40.10;20.25
6567;BME280;3317;43.994;22.878;2023-07-29T12:12:48;100580.97;;;40.12;20.51
6567;BME280;3317;43.994;22.878;2023-07-29T12:15:23;100570.34;;;40.09;20.13
6567;BME280;3317;43.994;22.878;2023-07-29T12:17:53;100573.75;;;40.15;20.98
6567;BME280;3317;43.994;22.878;2023-07-29T12:20:22;100575.84;;;40.31;21.55
6567;BME280;3317;43.994;22.878;2023-07-29T12:22:52;100577.69;;;40.26;19.14
6567;BME280;3317;43.994;22.878;2023-07-29T12:25:21;100564.88;;;40.17;19.79
6567;BME280;3317;43.994;22.878;2023-07-29T12:27:48;100569.00;;;40.19;19.98
6567;BME280;3317;43.994;22.878;2023-07-29T12:30:15;100576.75;;;40.35;20.44
6567;BME280;3317;43.994;22.878;2023-07-29T12:32:44;100570.56;;;40.45;19.72
6567;BME280;3317;43.994;22.878;2023-07-29T12:35:11;100555.63;;;40.48;20.19
6567;BME280;3317;43.994;22.878;2023-07-29T12:37:38;100563.16;;;40.57;20.43
6567;BME280;3317;43.994;22.878;2023-07-29T12:40:21;100563.16;;;40.57;20.24
6567;BME280;3317;43.994;22.878;2023-07-29T12:42:49;100559.75;;;40.51;20.02
6567;BME280;3317;43.994;22.878;2023-07-29T12:45:16;100517.94;;;39.91;17.94
6567;BME280;3317;43.994;22.878;2023-07-29T12:47:43;100551.53;;;39.76;17.75
6567;BME280;3317;43.994;22.878;2023-07-29T12:50:10;100551.66;;;39.67;18.18
6567;BME280;3317;43.994;22.878;2023-07-29T12:52:37;100560.06;;;39.64;19.14
6567;BME280;3317;43.994;22.878;2023-07-29T12:55:05;100547.28;;;39.70;20.03
6567;BME280;3317;43.994;22.878;2023-07-29T12:57:35;100550.72;;;39.76;20.14
6567;BME280;3317;43.994;22.878;2023-07-29T13:00:03;100554.63;;;39.71;18.94
6567;BME280;3317;43.994;22.878;2023-07-29T13:02:31;100555.69;;;39.66;20.24
6567;BME280;3317;43.994;22.878;2023-07-29T13:04:58;100541.97;;;39.68;20.37